Time;durP1;ratioP1;P1;durP2;ratioP2;P2;SDS_P1;SDS_P2;PMS_P1;PMS_P2;Temp;Humidity;BMP_temperature;BMP_pressure;BME280_temperature;BME280_humidity;BME280_pressure;Samples;Min_cycle;Max_cycle;Signal;HPM_P1;HPM_P2
2023/05/20 00:00:47;;;;;;;10.25;3.22;;;;;;;18.63;64.54;101524.53;5011796;28;20021;-52
2023/05/20 00:03:18;;;;;;;16.63;4.15;;;;;;;18.90;63.31;101524.78;4993052;28;20022;-49
2023/05/20 00:05:45;;;;;;;8.90;3.13;;;;;;;18.70;62.75;101532.53;5002503;28;20029;-46
2023/05/20 00:08:11;;;;;;;13.93;3.60;;;;;;;18.56;62.79;101534.72;5012272;28;20050;-49
2023/05/20 00:10:38;;;;;;;7.93;2.90;;;;;;;18.78;63.15;101548.44;5012205;28;20029;-49
2023/05/20 00:13:05;;;;;;;16.05;3.50;;;;;;;18.73;62.37;101538.31;5000333;28;20080;-48
2023/05/20 00:15:32;;;;;;;13.27;3.40;;;;;;;18.26;63.66;101524.06;4992588;28;20033;-48
2023/05/20 00:17:59;;;;;;;15.68;3.70;;;;;;;17.97;63.62;101514.25;5006643;28;20045;-52
2023/05/20 00:20:25;;;;;;;16.02;3.20;;;;;;;17.89;64.37;101518.16;4992562;28;20022;-46
2023/05/20 00:22:52;;;;;;;12.93;3.58;;;;;;;17.51;66.48;101510.50;4992646;28;20030;-46
2023/05/20 00:25:18;;;;;;;13.52;3.30;;;;;;;17.50;66.21;101512.41;4992698;28;20499;-49
2023/05/20 00:27:46;;;;;;;13.75;3.50;;;;;;;17.17;66.78;101514.84;4992835;28;20030;-48
2023/05/20 00:30:12;;;;;;;23.80;4.65;;;;;;;17.15;68.24;101524.00;4992100;28;20033;-52
2023/05/20 00:32:38;;;;;;;13.10;4.15;;;;;;;16.78;69.36;101511.72;4993724;28;20065;-46
2023/05/20 00:35:05;;;;;;;10.73;3.53;;;;;;;16.95;69.68;101501.06;5001402;28;20041;-50
2023/05/20 00:37:31;;;;;;;12.25;3.63;;;;;;;17.04;68.70;101514.00;4992601;28;20029;-46
2023/05/20 00:39:58;;;;;;;10.27;3.35;;;;;;;16.97;68.98;101509.75;4993407;28;20034;-44
2023/05/20 00:42:27;;;;;;;15.70;3.45;;;;;;;17.18;68.66;101500.25;4991631;28;20026;-49
2023/05/20 00:44:55;;;;;;;16.08;3.72;;;;;;;16.97;69.27;101515.16;5003082;28;20471;-48
2023/05/20 00:47:27;;;;;;;13.70;4.15;;;;;;;16.52;70.44;101519.09;5011989;28;20026;-53
2023/05/20 00:49:54;;;;;;;13.23;3.80;;;;;;;16.79;70.07;101511.47;5010554;28;20168;-50
2023/05/20 00:52:22;;;;;;;20.30;4.10;;;;;;;16.44;70.37;101507.81;5006427;28;20041;-45
2023/05/20 00:54:50;;;;;;;12.93;3.67;;;;;;;16.37;72.19;101506.00;4994775;28;20475;-49
2023/05/20 00:57:16;;;;;;;15.43;4.38;;;;;;;16.17;72.11;101515.41;4995021;28;20037;-46
2023/05/20 00:59:42;;;;;;;11.45;3.20;;;;;;;16.26;72.02;101508.63;5011489;28;20032;-48
2023/05/20 01:02:09;;;;;;;11.98;3.63;;;;;;;16.19;72.33;101511.44;4992595;28;20547;-50
2023/05/20 01:04:35;;;;;;;11.85;3.70;;;;;;;16.13;73.16;101506.13;4992230;28;20022;-50
2023/05/20 01:07:04;;;;;;;15.73;3.90;;;;;;;16.26;72.61;101508.63;4992135;28;20026;-47
2023/05/20 01:09:32;;;;;;;9.57;3.13;;;;;;;16.30;72.44;101504.44;5005783;28;20038;-49
2023/05/20 01:12:39;;;;;;;11.70;3.50;;;;;;;16.42;71.37;101499.09;5004447;28;20541;-44
2023/05/20 01:15:08;;;;;;;19.83;4.60;;;;;;;16.52;71.44;101502.06;4971273;28;20046;-44
2023/05/20 01:17:40;;;;;;;11.70;3.90;;;;;;;16.48;70.71;101492.75;4992328;28;20165;-44
2023/05/20 01:20:09;;;;;;;13.48;3.90;;;;;;;16.35;70.90;101497.28;4993259;28;20040;-45
2023/05/20 01:22:49;;;;;;;9.15;3.67;;;;;;;16.24;71.95;101502.66;5001673;28;20040;-45
2023/05/20 01:25:15;;;;;;;15.82;3.83;;;;;;;16.12;73.04;101501.78;5012189;28;20022;-46
2023/05/20 01:27:42;;;;;;;12.43;3.38;;;;;;;16.45;71.98;101502.16;5007030;28;20062;-43
2023/05/20 01:30:09;;;;;;;96.38;11.25;;;;;;;16.37;72.09;101497.06;4993304;28;20489;-44
2023/05/20 01:32:39;;;;;;;12.38;3.53;;;;;;;16.55;71.65;101496.22;5011857;28;20026;-43
2023/05/20 01:35:07;;;;;;;14.35;3.85;;;;;;;16.70;71.67;101495.78;5012147;28;20030;-45
2023/05/20 01:37:37;;;;;;;11.95;3.38;;;;;;;16.78;70.67;101492.78;5011897;28;20041;-44
2023/05/20 01:40:09;;;;;;;16.65;4.05;;;;;;;16.61;71.04;101493.41;5010388;28;20083;-44
2023/05/20 01:42:36;;;;;;;13.70;3.15;;;;;;;16.63;71.10;101503.97;5004913;28;20025;-44
2023/05/20 01:45:03;;;;;;;15.00;3.78;;;;;;;16.57;71.00;101511.13;5027437;28;20112;-42
2023/05/20 01:47:30;;;;;;;12.05;3.55;;;;;;;16.63;70.76;101515.63;5029551;28;20486;-42
2023/05/20 01:49:56;;;;;;;20.10;3.50;;;;;;;16.51;72.02;101513.94;5011944;28;20030;-48
2023/05/20 01:52:23;;;;;;;14.60;4.18;;;;;;;16.44;71.84;101513.22;5011907;28;20124;-43
2023/05/20 01:54:52;;;;;;;9.60;3.35;;;;;;;16.31;72.27;101514.19;4999671;28;20023;-44
2023/05/20 01:57:19;;;;;;;13.18;3.50;;;;;;;16.56;70.74;101503.25;4993939;28;20446;-46
2023/05/20 01:59:46;;;;;;;12.85;3.67;;;;;;;16.82;70.11;101496.66;5006101;28;20044;-46
2023/05/20 02:02:13;;;;;;;15.63;3.75;;;;;;;16.81;69.48;101506.66;4995401;28;20034;-47
2023/05/20 02:04:41;;;;;;;17.98;4.32;;;;;;;16.51;70.59;101506.66;4996594;28;20483;-45
2023/05/20 02:07:07;;;;;;;13.07;3.42;;;;;;;16.76;69.66;101508.41;4995943;28;20037;-46
2023/05/20 02:09:34;;;;;;;13.88;4.10;;;;;;;16.77;69.57;101510.91;4995917;28;20037;-43
2023/05/20 02:12:00;;;;;;;19.63;3.03;;;;;;;16.84;69.31;101500.78;4995462;28;20124;-44
2023/05/20 02:14:26;;;;;;;16.23;3.10;;;;;;;17.13;68.66;101515.31;4995641;28;20130;-46
2023/05/20 02:16:52;;;;;;;17.77;3.60;;;;;;;17.35;67.14;101512.03;4995131;28;20105;-49
2023/05/20 02:19:22;;;;;;;13.10;3.53;;;;;;;17.39;66.89;101515.94;4995450;28;20037;-44
2023/05/20 02:21:49;;;;;;;14.07;3.40;;;;;;;17.74;65.55;101526.78;4994657;28;20048;-47
2023/05/20 02:24:16;;;;;;;10.77;3.10;;;;;;;17.05;67.84;101521.06;5003823;28;20027;-45
2023/05/20 02:26:44;;;;;;;9.68;3.00;;;;;;;17.64;65.62;101510.25;4994472;28;20442;-46
2023/05/20 02:29:10;;;;;;;9.85;3.00;;;;;;;17.92;64.11;101506.84;5007228;28;20108;-47
2023/05/20 02:31:37;;;;;;;11.75;3.30;;;;;;;18.02;64.19;101498.94;5014080;28;20025;-48
2023/05/20 02:34:03;;;;;;;15.57;3.50;;;;;;;17.51;65.04;101502.41;4998753;28;20034;-47
2023/05/20 02:36:31;;;;;;;13.40;3.67;;;;;;;17.48;66.04;101508.25;4995023;28;20038;-50
2023/05/20 02:38:57;;;;;;;12.68;3.10;;;;;;;17.44;66.15;101499.00;4998385;28;20022;-45
2023/05/20 02:41:24;;;;;;;10.85;3.38;;;;;;;16.90;67.28;101509.84;5003232;28;20037;-46
2023/05/20 02:43:50;;;;;;;11.02;3.65;;;;;;;16.71;68.83;101510.97;5014570;28;20096;-45
2023/05/20 02:46:18;;;;;;;11.50;3.35;;;;;;;16.59;69.65;101494.69;4999379;28;20054;-47
2023/05/20 02:48:45;;;;;;;13.93;3.63;;;;;;;15.87;72.21;101513.47;5005491;28;20387;-46
2023/05/20 02:51:11;;;;;;;12.73;3.53;;;;;;;15.81;72.69;101517.88;4995901;28;20034;-46
2023/05/20 02:53:37;;;;;;;16.23;3.83;;;;;;;15.40;74.20;101521.19;4999880;28;20386;-45
2023/05/20 02:56:04;;;;;;;11.60;3.53;;;;;;;15.17;75.44;101520.97;5014313;28;20061;-44
2023/05/20 02:58:32;;;;;;;15.43;3.45;;;;;;;15.06;76.36;101517.09;5008265;28;20034;-44
2023/05/20 03:00:58;;;;;;;11.70;4.10;;;;;;;14.92;76.84;101529.84;4994356;28;20454;-46
2023/05/20 03:03:28;;;;;;;15.93;4.25;;;;;;;15.01;76.80;101528.53;4977099;28;20026;-48
2023/05/20 03:05:54;;;;;;;10.68;4.10;;;;;;;14.77;77.67;101529.34;5000757;28;20053;-48
2023/05/20 03:08:22;;;;;;;14.32;4.18;;;;;;;14.65;78.54;101534.56;5013885;28;20081;-46
2023/05/20 03:10:49;;;;;;;18.35;4.28;;;;;;;14.25;80.25;101532.03;5013799;28;20117;-45
2023/05/20 03:13:15;;;;;;;13.68;4.00;;;;;;;14.35;80.39;101536.97;5006453;28;20426;-48
2023/05/20 03:15:44;;;;;;;15.10;3.50;;;;;;;14.11;81.82;101537.69;4993942;28;20027;-45
2023/05/20 03:18:13;;;;;;;14.48;4.10;;;;;;;13.98;82.60;101531.28;4996099;28;20039;-47
2023/05/20 03:20:42;;;;;;;20.55;4.65;;;;;;;14.03;82.18;101533.34;5004076;28;20054;-46
2023/05/20 03:23:09;;;;;;;10.70;3.90;;;;;;;13.96;82.31;101532.56;5015699;28;20046;-45
2023/05/20 03:25:37;;;;;;;16.27;4.20;;;;;;;13.79;83.20;101537.56;5008184;28;20532;-45
2023/05/20 03:28:05;;;;;;;16.40;4.05;;;;;;;13.74;83.75;101543.56;5012325;28;20116;-46
2023/05/20 03:30:33;;;;;;;12.75;4.35;;;;;;;13.54;84.76;101540.06;5013023;28;20375;-46
2023/05/20 03:33:01;;;;;;;14.75;4.07;;;;;;;13.56;84.42;101540.72;4993641;28;20029;-45
2023/05/20 03:35:28;;;;;;;12.63;4.22;;;;;;;13.63;84.39;101548.75;4993590;28;20109;-45
2023/05/20 03:37:55;;;;;;;14.15;4.85;;;;;;;13.57;84.95;101546.91;5006583;28;20454;-46
2023/05/20 03:40:21;;;;;;;17.70;4.25;;;;;;;13.44;85.36;101551.28;5012872;28;20109;-47
2023/05/20 03:42:49;;;;;;;14.70;3.67;;;;;;;13.53;85.13;101567.19;5012702;28;20038;-46
2023/05/20 03:45:15;;;;;;;16.20;4.20;;;;;;;13.41;85.79;101559.75;5012626;28;20034;-46
2023/05/20 03:47:42;;;;;;;15.75;3.88;;;;;;;13.44;85.68;101564.72;5013159;28;20030;-46
2023/05/20 03:50:08;;;;;;;17.70;4.38;;;;;;;13.26;86.42;101567.19;5012606;28;20054;-48
2023/05/20 03:52:35;;;;;;;17.58;3.63;;;;;;;13.25;86.66;101570.91;5012844;28;20352;-47
2023/05/20 03:55:03;;;;;;;19.95;4.60;;;;;;;13.18;87.05;101580.81;4966524;28;20072;-45
2023/05/20 03:57:31;;;;;;;15.88;4.30;;;;;;;13.11;87.45;101577.28;5028103;28;20029;-46
2023/05/20 03:59:57;;;;;;;17.98;4.20;;;;;;;13.04;88.27;101565.69;5011598;28;20030;-48
2023/05/20 04:02:23;;;;;;;19.60;4.70;;;;;;;13.15;87.59;101571.25;5019042;23;20046;-49
2023/05/20 04:04:51;;;;;;;15.15;3.80;;;;;;;13.37;86.64;101582.69;5011544;28;20061;-49
2023/05/20 04:07:18;;;;;;;13.48;4.10;;;;;;;13.14;86.96;101582.22;5012538;28;20022;-48
2023/05/20 04:09:46;;;;;;;15.93;3.88;;;;;;;13.25;86.39;101578.97;5012308;28;20021;-47
2023/05/20 04:12:13;;;;;;;13.57;3.70;;;;;;;13.07;87.23;101576.84;5012462;28;20025;-46
2023/05/20 04:14:40;;;;;;;18.92;4.60;;;;;;;12.93;88.01;101581.34;5027592;28;20094;-48
2023/05/20 04:17:08;;;;;;;16.95;4.70;;;;;;;12.92;87.98;101585.09;5014407;28;20402;-48
2023/05/20 04:19:35;;;;;;;13.23;3.75;;;;;;;12.99;88.05;101582.41;5031755;28;20064;-47
2023/05/20 04:22:01;;;;;;;21.10;4.20;;;;;;;12.86;89.28;101591.28;5018845;28;20025;-45
2023/05/20 04:24:27;;;;;;;13.13;3.70;;;;;;;12.93;89.09;101583.22;5010365;28;20490;-47
2023/05/20 04:26:53;;;;;;;14.95;4.15;;;;;;;12.94;88.81;101603.72;5012435;28;20057;-48
2023/05/20 04:29:20;;;;;;;13.82;3.58;;;;;;;13.05;88.00;101602.28;5007024;28;20446;-44
2023/05/20 04:31:46;;;;;;;25.02;4.63;;;;;;;12.98;88.41;101617.56;5005673;28;20117;-46
2023/05/20 04:34:13;;;;;;;14.95;4.18;;;;;;;13.15;87.22;101619.66;5007214;28;20013;-49
2023/05/20 04:36:40;;;;;;;13.10;4.53;;;;;;;12.95;88.17;101619.63;5014035;28;20037;-50
2023/05/20 04:39:09;;;;;;;14.77;3.97;;;;;;;13.00;87.81;101632.47;5026904;28;20363;-46
2023/05/20 04:41:35;;;;;;;11.98;4.00;;;;;;;13.07;87.75;101629.78;5023956;28;20030;-48
2023/05/20 04:44:02;;;;;;;13.63;3.63;;;;;;;13.12;86.88;101632.69;5011086;28;20475;-46
2023/05/20 04:46:30;;;;;;;11.40;3.40;;;;;;;13.22;86.69;101635.84;4992183;28;20455;-47
2023/05/20 04:48:56;;;;;;;23.02;4.47;;;;;;;13.18;86.47;101635.38;4992786;28;20022;-48
2023/05/20 04:51:22;;;;;;;11.90;3.70;;;;;;;13.13;86.86;101628.97;5022402;28;20049;-48
2023/05/20 04:53:49;;;;;;;14.68;3.63;;;;;;;13.06;87.82;101631.66;5021285;28;20454;-46
2023/05/20 04:56:15;;;;;;;12.18;3.78;;;;;;;13.09;87.58;101630.41;5012424;28;20022;-46
2023/05/20 04:58:42;;;;;;;15.48;4.63;;;;;;;13.06;88.16;101636.19;4997969;28;20042;-45
2023/05/20 05:01:08;;;;;;;15.38;4.72;;;;;;;13.09;87.60;101635.78;4991220;28;20026;-47
2023/05/20 05:03:34;;;;;;;15.65;3.88;;;;;;;13.30;86.93;101632.13;4991678;28;20081;-45
2023/05/20 05:06:00;;;;;;;13.07;4.30;;;;;;;13.18;86.99;101634.56;4994078;28;20053;-46
2023/05/20 05:08:27;;;;;;;12.70;3.67;;;;;;;13.14;88.10;101639.50;4993047;28;20097;-45
2023/05/20 05:10:53;;;;;;;16.80;4.07;;;;;;;13.23;87.46;101637.50;4992502;28;20363;-45
2023/05/20 05:13:19;;;;;;;16.50;4.10;;;;;;;13.16;87.46;101639.31;4992641;28;20098;-48
2023/05/20 05:15:45;;;;;;;15.23;4.45;;;;;;;12.86;89.04;101644.19;4992545;28;20049;-45
2023/05/20 05:18:12;;;;;;;20.63;4.47;;;;;;;12.77;90.01;101654.28;4992556;28;20565;-45
2023/05/20 05:20:38;;;;;;;13.82;4.53;;;;;;;12.84;89.48;101652.44;4992278;28;20113;-46
2023/05/20 05:23:04;;;;;;;15.35;4.82;;;;;;;12.82;89.97;101646.44;4975018;28;20390;-44
2023/05/20 05:25:31;;;;;;;13.85;4.50;;;;;;;12.80;89.62;101643.13;4992830;28;20026;-47
2023/05/20 05:27:57;;;;;;;13.95;4.65;;;;;;;12.76;89.63;101649.94;5001700;28;20037;-48
2023/05/20 05:30:23;;;;;;;17.65;4.60;;;;;;;12.62;90.43;101645.53;5000269;28;20118;-46
2023/05/20 05:32:50;;;;;;;21.05;4.65;;;;;;;12.59;91.08;101652.13;4992390;28;20414;-48
2023/05/20 05:35:16;;;;;;;20.27;4.88;;;;;;;12.54;91.46;101645.69;4992240;28;20031;-47
2023/05/20 05:37:42;;;;;;;16.25;5.05;;;;;;;12.31;92.66;101649.50;4992244;28;20030;-47
2023/05/20 05:40:10;;;;;;;19.08;4.95;;;;;;;12.34;92.79;101645.59;4993231;28;20487;-49
2023/05/20 05:42:36;;;;;;;19.35;4.80;;;;;;;12.45;92.29;101645.03;4996183;28;20042;-49
2023/05/20 05:45:02;;;;;;;16.23;4.78;;;;;;;12.34;92.44;101648.28;4999136;28;20382;-47
2023/05/20 05:47:31;;;;;;;16.80;4.95;;;;;;;12.40;91.79;101642.13;5015871;28;20018;-46
2023/05/20 05:49:58;;;;;;;17.77;5.38;;;;;;;12.26;92.19;101643.88;5015248;28;20053;-44
2023/05/20 05:52:26;;;;;;;20.38;5.43;;;;;;;12.25;91.99;101649.47;5015589;28;20057;-44
2023/05/20 05:54:54;;;;;;;12.30;4.45;;;;;;;12.24;91.44;101651.31;5015405;28;20041;-44
2023/05/20 05:57:20;;;;;;;20.15;5.05;;;;;;;12.07;92.41;101658.84;5015455;28;20029;-44
2023/05/20 05:59:46;;;;;;;18.90;5.25;;;;;;;12.12;92.56;101655.59;4998957;28;20038;-44
2023/05/20 06:02:13;;;;;;;23.05;5.22;;;;;;;12.24;92.19;101654.00;5007512;28;20049;-44
2023/05/20 06:04:40;;;;;;;20.33;5.03;;;;;;;12.15;93.11;101642.59;5015308;28;20037;-44
2023/05/20 06:07:06;;;;;;;20.63;5.25;;;;;;;12.23;92.91;101649.66;5015383;28;20402;-44
2023/05/20 06:09:35;;;;;;;22.42;5.70;;;;;;;12.21;92.55;101635.59;5014924;28;20084;-44
2023/05/20 06:12:01;;;;;;;16.30;5.20;;;;;;;12.17;92.54;101637.03;5014982;28;20374;-47
2023/05/20 06:14:27;;;;;;;21.50;5.80;;;;;;;12.28;92.12;101635.66;5015081;28;20018;-45
2023/05/20 06:16:53;;;;;;;21.15;5.88;;;;;;;12.17;92.74;101629.00;5015041;28;20081;-46
2023/05/20 06:19:19;;;;;;;18.33;5.90;;;;;;;12.08;92.80;101627.47;5014249;28;20026;-46
2023/05/20 06:21:46;;;;;;;19.45;5.30;;;;;;;12.11;92.54;101632.47;5013522;28;20037;-46
2023/05/20 06:24:12;;;;;;;17.80;6.30;;;;;;;12.06;92.82;101629.53;5014858;28;20041;-44
2023/05/20 06:26:38;;;;;;;13.45;5.15;;;;;;;12.16;92.00;101630.03;5014814;28;20112;-46
2023/05/20 06:29:04;;;;;;;18.92;5.50;;;;;;;12.06;92.16;101625.00;5009110;28;20028;-44
2023/05/20 06:31:31;;;;;;;19.13;5.63;;;;;;;12.05;91.83;101627.88;5004016;28;20072;-44
2023/05/20 06:33:57;;;;;;;20.13;6.15;;;;;;;12.10;91.61;101637.00;5001779;28;20030;-44
2023/05/20 06:36:23;;;;;;;19.10;5.93;;;;;;;12.04;91.98;101643.13;5013728;28;20053;-45
2023/05/20 06:38:49;;;;;;;19.45;5.63;;;;;;;12.00;92.34;101638.38;5012083;28;20038;-46
2023/05/20 06:41:15;;;;;;;20.38;6.70;;;;;;;12.10;92.15;101620.03;5013791;28;20025;-44
2023/05/20 06:43:42;;;;;;;18.90;5.38;;;;;;;12.15;91.83;101634.53;5014465;28;20038;-44
2023/05/20 06:46:08;;;;;;;13.57;5.32;;;;;;;12.15;91.59;101629.16;5010713;28;20110;-45
2023/05/20 06:48:34;;;;;;;18.50;5.95;;;;;;;12.03;91.81;101625.38;4997000;28;20121;-44
2023/05/20 06:51:00;;;;;;;14.30;4.75;;;;;;;11.99;92.01;101618.75;5012940;28;20053;-44
2023/05/20 06:53:27;;;;;;;21.73;5.57;;;;;;;11.95;92.28;101624.72;5033459;28;20386;-46
2023/05/20 06:55:57;;;;;;;21.88;6.07;;;;;;;12.00;92.31;101620.41;5017383;28;20026;-44
2023/05/20 06:58:23;;;;;;;18.95;5.90;;;;;;;12.03;91.71;101629.91;5013956;28;20038;-44
2023/05/20 07:00:49;;;;;;;17.25;5.10;;;;;;;12.12;90.85;101632.25;5011757;28;20061;-44
2023/05/20 07:03:16;;;;;;;17.70;5.47;;;;;;;12.04;90.91;101631.56;5013945;28;20100;-45
2023/05/20 07:05:42;;;;;;;19.85;5.47;;;;;;;12.00;90.83;101630.31;5013848;28;20041;-45
2023/05/20 07:08:08;;;;;;;15.20;5.55;;;;;;;12.05;90.56;101625.19;5031245;28;20057;-44
2023/05/20 07:10:34;;;;;;;14.15;5.13;;;;;;;12.01;91.09;101622.06;5033732;28;20056;-44
2023/05/20 07:13:01;;;;;;;13.93;6.10;;;;;;;11.94;91.12;101620.34;5033853;28;20083;-44
2023/05/20 07:15:27;;;;;;;20.10;6.38;;;;;;;11.89;91.29;101615.59;5033766;28;20033;-47
2023/05/20 07:17:53;;;;;;;18.55;5.50;;;;;;;11.84;92.05;101612.66;5011918;28;20038;-45
2023/05/20 07:20:20;;;;;;;15.52;5.55;;;;;;;11.89;91.92;101621.78;5026162;28;20029;-45
2023/05/20 07:22:47;;;;;;;24.13;6.40;;;;;;;11.79;92.72;101629.31;5031059;28;20030;-44
2023/05/20 07:25:14;;;;;;;18.48;6.47;;;;;;;11.83;92.49;101632.47;5014183;28;20065;-46
2023/05/20 07:27:40;;;;;;;17.30;6.05;;;;;;;11.89;92.13;101634.38;5013917;28;20030;-44
2023/05/20 07:30:07;;;;;;;16.33;5.93;;;;;;;11.83;92.19;101633.31;5008543;28;20059;-45
2023/05/20 07:32:33;;;;;;;18.45;6.20;;;;;;;11.88;92.02;101633.56;4994810;28;20038;-48
2023/05/20 07:35:00;;;;;;;19.50;5.32;;;;;;;11.83;92.58;101624.44;5016938;28;20403;-46
2023/05/20 07:37:26;;;;;;;15.30;6.13;;;;;;;11.80;92.45;101620.22;5033454;28;20034;-45
2023/05/20 07:39:52;;;;;;;15.85;5.68;;;;;;;11.76;92.83;101618.97;5018075;28;20034;-47
2023/05/20 07:42:19;;;;;;;18.25;5.57;;;;;;;11.75;93.12;101611.94;4976455;28;20077;-45
2023/05/20 07:44:45;;;;;;;17.33;6.25;;;;;;;11.79;93.08;101612.41;4993717;28;20045;-49
2023/05/20 07:47:13;;;;;;;14.82;5.25;;;;;;;11.77;93.60;101615.28;4993740;28;20036;-46
2023/05/20 07:49:39;;;;;;;18.02;5.20;;;;;;;11.78;93.46;101616.94;4993591;28;20031;-45
2023/05/20 07:52:06;;;;;;;12.98;4.88;;;;;;;11.77;93.62;101623.31;4993505;28;20053;-44
2023/05/20 07:54:33;;;;;;;12.75;5.35;;;;;;;11.81;93.29;101621.91;4993909;28;20430;-46
2023/05/20 07:57:00;;;;;;;16.40;5.47;;;;;;;11.77;92.57;101620.63;4993459;28;20110;-45
2023/05/20 07:59:26;;;;;;;19.10;5.57;;;;;;;11.81;92.19;101627.28;4993439;28;20030;-46
2023/05/20 08:01:53;;;;;;;15.48;5.60;;;;;;;11.84;91.50;101629.59;4993050;28;20049;-48
2023/05/20 08:04:19;;;;;;;14.75;5.68;;;;;;;11.78;91.66;101624.97;4992352;28;20032;-47
2023/05/20 08:06:45;;;;;;;14.57;5.93;;;;;;;11.80;91.19;101624.78;4992497;28;20027;-47
2023/05/20 08:09:11;;;;;;;16.30;5.47;;;;;;;11.74;92.14;101629.06;4993643;28;20117;-45
2023/05/20 08:11:38;;;;;;;16.42;5.65;;;;;;;11.67;92.35;101628.19;4993441;28;20599;-47
2023/05/20 08:14:04;;;;;;;18.73;5.38;;;;;;;11.73;92.15;101635.47;4992488;28;20018;-47
2023/05/20 08:16:31;;;;;;;12.38;4.65;;;;;;;11.77;91.78;101626.00;4992275;28;20164;-46
2023/05/20 08:18:57;;;;;;;17.83;5.20;;;;;;;11.76;91.04;101620.81;4992544;28;20507;-48
2023/05/20 08:21:23;;;;;;;16.10;4.90;;;;;;;11.69;91.49;101631.50;4992558;28;20042;-48
2023/05/20 08:23:50;;;;;;;16.40;5.53;;;;;;;11.68;92.06;101629.84;4992226;28;20109;-47
2023/05/20 08:26:16;;;;;;;17.48;4.75;;;;;;;11.74;91.39;101631.75;4992317;28;20038;-45
2023/05/20 08:28:42;;;;;;;13.60;5.30;;;;;;;11.77;91.87;101634.06;4992297;28;20037;-47
2023/05/20 08:31:08;;;;;;;13.40;5.00;;;;;;;11.69;92.16;101636.03;4993105;28;20100;-45
2023/05/20 08:33:35;;;;;;;12.85;5.07;;;;;;;11.66;92.53;101634.59;4992138;28;20018;-45
2023/05/20 08:36:01;;;;;;;18.23;4.80;;;;;;;11.80;91.34;101636.31;4994702;28;20425;-47
2023/05/20 08:38:27;;;;;;;11.82;5.28;;;;;;;11.74;91.54;101631.75;4992131;28;20066;-44
2023/05/20 08:40:55;;;;;;;13.80;5.28;;;;;;;11.71;92.46;101632.13;4991798;28;20045;-46
2023/05/20 08:43:23;;;;;;;13.38;4.75;;;;;;;11.73;92.40;101629.25;4992029;28;20069;-44
2023/05/20 08:45:53;;;;;;;16.17;4.88;;;;;;;11.72;92.04;101628.44;4992016;28;20121;-45
2023/05/20 08:48:22;;;;;;;11.20;5.30;;;;;;;11.78;91.69;101633.03;4991945;28;20510;-45
2023/05/20 08:50:52;;;;;;;17.17;5.18;;;;;;;11.86;91.77;101624.03;4991697;28;20085;-44
2023/05/20 08:53:21;;;;;;;13.55;5.13;;;;;;;11.93;91.56;101622.22;4991952;28;20031;-44
2023/05/20 08:56:01;;;;;;;16.55;4.45;;;;;;;11.92;91.54;101633.16;4992183;28;20026;-44
2023/05/20 08:58:31;;;;;;;13.90;4.68;;;;;;;11.90;91.37;101633.34;4992438;28;20422;-44
2023/05/20 09:00:58;;;;;;;10.57;4.75;;;;;;;11.83;91.30;101641.34;4991725;28;20031;-44
2023/05/20 09:03:24;;;;;;;13.30;5.28;;;;;;;11.86;91.02;101640.94;4915303;28;2347314;-44
2023/05/20 09:05:51;;;;;;;11.23;4.90;;;;;;;11.88;90.79;101638.06;4992747;28;20117;-44
2023/05/20 09:08:19;;;;;;;11.38;3.72;;;;;;;11.87;91.15;101641.78;4992570;28;20113;-44
2023/05/20 09:10:45;;;;;;;14.68;4.80;;;;;;;11.82;91.49;101636.16;4992447;28;20038;-44
2023/05/20 09:13:12;;;;;;;13.18;4.82;;;;;;;11.69;91.46;101641.41;4992397;28;20026;-45
2023/05/20 09:15:39;;;;;;;11.05;4.00;;;;;;;11.84;90.99;101639.50;4994674;28;20108;-43
2023/05/20 09:18:07;;;;;;;13.52;4.70;;;;;;;11.79;91.29;101645.41;4996475;28;20046;-45
2023/05/20 09:20:36;;;;;;;11.85;4.35;;;;;;;11.79;91.23;101640.03;4996194;28;20097;-44
2023/05/20 09:23:04;;;;;;;15.27;4.82;;;;;;;11.83;90.89;101635.97;4997423;28;20128;-44
2023/05/20 09:25:31;;;;;;;13.75;4.82;;;;;;;11.83;91.11;101629.78;4996448;28;20057;-44
2023/05/20 09:27:57;;;;;;;15.93;4.68;;;;;;;11.84;91.69;101626.91;5000706;28;20120;-43
2023/05/20 09:30:24;;;;;;;10.95;4.05;;;;;;;11.96;91.72;101639.78;5011087;28;20486;-46
2023/05/20 09:32:58;;;;;;;12.90;4.70;;;;;;;11.79;92.09;101640.03;4999245;28;20077;-45
2023/05/20 09:35:26;;;;;;;12.15;3.67;;;;;;;12.00;91.09;101646.44;5016047;28;20029;-47
2023/05/20 09:37:57;;;;;;;14.32;4.18;;;;;;;11.88;91.48;101643.41;5035540;28;20033;-47
2023/05/20 09:40:27;;;;;;;15.52;4.35;;;;;;;11.84;91.40;101642.19;5035305;28;20382;-45
2023/05/20 09:42:58;;;;;;;10.82;3.80;;;;;;;12.03;90.74;101643.34;5035505;28;20049;-43
2023/05/20 09:45:24;;;;;;;11.80;3.75;;;;;;;12.07;90.59;101642.75;5035836;28;20080;-45
2023/05/20 09:47:51;;;;;;;14.43;3.72;;;;;;;12.05;90.22;101650.19;5035253;28;20035;-45
2023/05/20 09:50:22;;;;;;;8.85;3.60;;;;;;;12.16;90.10;101640.75;5035183;28;20029;-44
2023/05/20 09:52:50;;;;;;;14.60;3.83;;;;;;;12.01;90.58;101632.81;5035264;28;20053;-45
2023/05/20 09:55:21;;;;;;;11.43;3.88;;;;;;;12.09;90.73;101637.19;5035324;28;20103;-44
2023/05/20 09:57:48;;;;;;;16.50;3.75;;;;;;;12.02;91.04;101628.25;5035087;28;20033;-47
2023/05/20 10:00:18;;;;;;;9.32;3.20;;;;;;;12.12;90.14;101632.25;4999738;28;20105;-44
2023/05/20 10:02:49;;;;;;;9.75;3.28;;;;;;;12.12;90.14;101628.75;4995674;28;20189;-45
2023/05/20 10:05:23;;;;;;;7.95;3.28;;;;;;;12.09;90.20;101631.81;4995760;28;20042;-46
2023/05/20 10:08:11;;;;;;;11.15;3.70;;;;;;;12.29;89.80;101631.94;4995679;28;20482;-45
2023/05/20 10:10:49;;;;;;;11.90;3.80;;;;;;;12.11;90.21;101627.09;4995526;28;20574;-45
2023/05/20 10:13:26;;;;;;;10.85;3.03;;;;;;;12.27;89.60;101633.97;4995658;28;20498;-48
2023/05/20 10:16:14;;;;;;;8.52;2.83;;;;;;;12.27;89.67;101628.63;4995706;28;20022;-45
2023/05/20 10:18:43;;;;;;;10.23;2.85;;;;;;;12.37;89.16;101631.78;4995727;28;20030;-45
2023/05/20 10:21:17;;;;;;;10.98;3.55;;;;;;;12.35;89.63;101626.59;4996130;28;20034;-44
2023/05/20 10:23:44;;;;;;;8.38;3.13;;;;;;;12.37;89.30;101631.78;4995382;28;20456;-46
2023/05/20 10:26:10;;;;;;;8.70;2.83;;;;;;;12.23;89.67;101628.19;4995341;28;20471;-46
2023/05/20 10:28:40;;;;;;;8.85;2.70;;;;;;;12.33;89.72;101626.00;4995452;28;20061;-45
2023/05/20 10:31:21;;;;;;;9.82;3.30;;;;;;;12.35;89.27;101629.28;4995009;28;20113;-44
2023/05/20 10:33:48;;;;;;;10.90;2.70;;;;;;;12.45;89.19;101628.13;4995187;28;20084;-44
2023/05/20 10:36:30;;;;;;;11.18;3.17;;;;;;;12.49;88.82;101627.50;4995235;28;20096;-47
2023/05/20 10:38:58;;;;;;;7.55;2.70;;;;;;;12.57;88.04;101631.88;4994796;28;20030;-46
2023/05/20 10:41:26;;;;;;;8.32;2.55;;;;;;;12.53;87.63;101622.56;4995082;28;20479;-44
2023/05/20 10:44:00;;;;;;;6.82;2.95;;;;;;;12.55;87.28;101623.22;4994992;28;20538;-44
2023/05/20 10:46:26;;;;;;;8.80;3.72;;;;;;;12.50;87.79;101631.84;4995010;28;20030;-48
2023/05/20 10:48:52;;;;;;;5.03;2.30;;;;;;;12.61;87.24;101631.28;4994681;28;20030;-44
2023/05/20 10:51:20;;;;;;;9.93;2.92;;;;;;;12.74;86.42;101632.38;4995045;28;20443;-46
2023/05/20 10:53:46;;;;;;;11.70;3.08;;;;;;;12.66;86.00;101630.69;5013373;28;20025;-46
2023/05/20 10:56:22;;;;;;;5.63;3.05;;;;;;;12.77;86.10;101632.81;5034189;28;20033;-44
2023/05/20 10:58:50;;;;;;;7.60;2.80;;;;;;;12.67;86.57;101637.72;5022340;28;20494;-45
2023/05/20 11:01:20;;;;;;;6.63;2.60;;;;;;;12.85;85.59;101632.59;5014206;28;20509;-48
2023/05/20 11:03:48;;;;;;;10.00;2.80;;;;;;;12.77;85.81;101637.31;5014353;28;20038;-46
2023/05/20 11:06:15;;;;;;;6.60;2.85;;;;;;;12.79;85.60;101635.28;4999361;28;20073;-46
2023/05/20 11:08:42;;;;;;;7.03;2.53;;;;;;;12.81;85.35;101644.78;4994670;28;20030;-47
2023/05/20 11:11:10;;;;;;;13.38;3.17;;;;;;;12.91;84.71;101644.41;4994435;28;20129;-47
2023/05/20 11:13:36;;;;;;;7.60;3.08;;;;;;;12.72;84.98;101637.94;4994548;28;20022;-47
2023/05/20 11:16:03;;;;;;;10.20;2.65;;;;;;;12.77;85.48;101643.53;4994423;28;20109;-47
2023/05/20 11:18:30;;;;;;;6.68;2.38;;;;;;;12.77;85.44;101632.81;4995909;28;20104;-49